Time;durP1;ratioP1;P1;durP2;ratioP2;P2;SDS_P1;SDS_P2;PMS_P1;PMS_P2;Temp;Humidity;BMP_temperature;BMP_pressure;BME280_temperature;BME280_humidity;BME280_pressure;Samples;Min_cycle;Max_cycle;Signal;HPM_P1;HPM_P2
2022/09/19 00:01:25;;;;;;;6.78;1.70;;;8.50;98.80;;;;;;5029622;28;20355;-70
2022/09/19 00:03:59;;;;;;;6.07;1.73;;;8.50;98.80;;;;;;5025759;28;20065;-70
2022/09/19 00:06:27;;;;;;;3.42;1.63;;;8.40;98.80;;;;;;5027844;28;20029;-71
2022/09/19 00:08:53;;;;;;;4.07;1.75;;;8.40;98.80;;;;;;5032780;28;20384;-69
2022/09/19 00:11:20;;;;;;;4.15;1.75;;;8.30;98.70;;;;;;5020141;28;20133;-70
2022/09/19 00:13:48;;;;;;;3.90;1.80;;;8.30;98.90;;;;;;5030119;28;20049;-71
2022/09/19 00:16:19;;;;;;;6.10;1.85;;;8.30;98.80;;;;;;5025395;28;20040;-70
2022/09/19 00:18:47;;;;;;;5.22;1.55;;;8.20;98.90;;;;;;5033794;28;20025;-70
2022/09/19 00:21:22;;;;;;;2.90;1.52;;;8.30;98.90;;;;;;5027597;28;20049;-70
2022/09/19 00:26:32;;;;;;;4.20;1.60;;;8.20;98.80;;;;;;5024989;28;20087;-70
2022/09/19 00:28:57;;;;;;;3.88;1.77;;;8.10;98.80;;;;;;5030493;28;20059;-70
2022/09/19 00:31:23;;;;;;;2.58;1.50;;;8.10;98.80;;;;;;5020083;28;20072;-70
2022/09/19 00:33:48;;;;;;;3.08;1.67;;;8.10;98.80;;;;;;5029047;28;20065;-70
2022/09/19 00:36:15;;;;;;;3.88;1.50;;;8.10;98.90;;;;;;5024991;28;20040;-70
2022/09/19 00:38:42;;;;;;;3.20;1.50;;;8.00;98.80;;;;;;5036885;28;20128;-70
2022/09/19 00:41:08;;;;;;;6.32;2.00;;;8.00;98.90;;;;;;5027537;28;20033;-71
2022/09/19 00:43:47;;;;;;;7.20;1.90;;;8.00;98.90;;;;;;5029140;28;20478;-70
2022/09/19 00:46:13;;;;;;;7.93;2.10;;;8.00;98.90;;;;;;5023625;28;20037;-70
2022/09/19 00:48:41;;;;;;;6.63;1.65;;;7.80;98.90;;;;;;5031793;28;20033;-70
2022/09/19 00:51:10;;;;;;;3.22;1.70;;;7.80;98.90;;;;;;5024919;28;20028;-70
2022/09/19 00:53:37;;;;;;;3.38;1.52;;;7.80;99.00;;;;;;5024618;28;20116;-70
2022/09/19 00:56:04;;;;;;;3.67;1.73;;;7.80;99.00;;;;;;5028658;28;20040;-71
2022/09/19 00:58:39;;;;;;;6.55;1.80;;;7.80;99.00;;;;;;5028813;28;20072;-70
2022/09/19 01:01:05;;;;;;;4.05;1.58;;;7.80;99.00;;;;;;5027109;28;20045;-69
2022/09/19 01:03:31;;;;;;;4.15;1.50;;;7.70;99.00;;;;;;5028012;28;20029;-70
2022/09/19 01:06:19;;;;;;;5.15;1.73;;;7.70;99.00;;;;;;5026626;28;20476;-70
2022/09/19 01:08:54;;;;;;;3.95;1.58;;;7.70;99.10;;;;;;5031893;28;20168;-70
2022/09/19 01:11:45;;;;;;;5.25;1.55;;;7.60;99.10;;;;;;5021228;28;20025;-70
2022/09/19 01:14:17;;;;;;;;;;;7.60;99.20;;;;;;5029077;28;20029;-70
2022/09/19 01:16:50;;;;;;;3.95;1.38;;;7.60;99.10;;;;;;5031409;28;19909;-70
2022/09/19 01:19:27;;;;;;;6.80;1.80;;;7.60;99.20;;;;;;5027373;28;20070;-70
2022/09/19 01:22:05;;;;;;;3.58;1.88;;;7.60;99.20;;;;;;5018883;28;20094;-70
2022/09/19 01:25:14;;;;;;;5.22;2.00;;;7.60;99.20;;;;;;5019865;28;20026;-70
2022/09/19 01:28:01;;;;;;;2.50;1.63;;;7.50;99.20;;;;;;4987525;28;20056;-70
2022/09/19 01:30:27;;;;;;;5.78;1.80;;;7.50;99.30;;;;;;5020642;28;20442;-70
2022/09/19 01:33:04;;;;;;;2.30;1.50;;;7.50;99.30;;;;;;5027133;28;20065;-70
2022/09/19 01:35:33;;;;;;;4.82;2.00;;;7.40;99.30;;;;;;5027273;28;20108;-70
2022/09/19 01:38:09;;;;;;;3.97;2.20;;;7.30;99.30;;;;;;5026368;28;20371;-69
2022/09/19 01:40:36;;;;;;;4.30;2.03;;;7.30;99.20;;;;;;5029512;28;20029;-70
2022/09/19 01:43:06;;;;;;;5.88;2.00;;;7.10;99.20;;;;;;5026986;28;20213;-70
2022/09/19 01:45:36;;;;;;;5.63;2.00;;;7.10;99.30;;;;;;5027156;28;20040;-69
2022/09/19 01:48:06;;;;;;;2.95;1.52;;;7.10;99.40;;;;;;5029691;28;20485;-70
2022/09/19 01:50:59;;;;;;;3.70;2.03;;;7.10;99.30;;;;;;5018713;28;20072;-70
2022/09/19 01:54:07;;;;;;;6.20;1.60;;;7.10;99.40;;;;;;5027420;28;20025;-70
2022/09/19 01:56:57;;;;;;;2.70;1.65;;;7.20;99.50;;;;;;5020735;28;20112;-69
2022/09/19 01:59:40;;;;;;;3.85;1.80;;;7.30;99.60;;;;;;5024794;28;20355;-70
2022/09/19 02:02:41;;;;;;;4.70;2.08;;;7.30;99.60;;;;;;5029045;28;20041;-71
2022/09/19 02:05:21;;;;;;;3.15;1.90;;;7.30;99.60;;;;;;4994560;28;20057;-70
2022/09/19 02:08:03;;;;;;;5.78;1.90;;;7.20;99.50;;;;;;5020467;28;20432;-72
2022/09/19 02:10:36;;;;;;;2.72;1.60;;;7.20;99.60;;;;;;5020560;28;20034;-70
2022/09/19 02:13:05;;;;;;;5.15;2.08;;;7.20;99.60;;;;;;5024803;28;20042;-70
2022/09/19 02:15:34;;;;;;;4.10;1.85;;;7.20;99.60;;;;;;5027746;28;20123;-70
2022/09/19 02:18:12;;;;;;;5.32;2.08;;;7.10;99.60;;;;;;5031854;28;20029;-70
2022/09/19 02:20:40;;;;;;;3.95;1.90;;;7.10;99.60;;;;;;5027367;28;20080;-69
2022/09/19 02:23:24;;;;;;;4.00;2.10;;;7.10;99.70;;;;;;5026355;28;20132;-70
2022/09/19 02:25:52;;;;;;;7.70;2.00;;;7.10;99.60;;;;;;5026220;28;20025;-70
2022/09/19 02:28:41;;;;;;;6.20;2.25;;;7.10;99.60;;;;;;5026439;28;20037;-71
2022/09/19 02:31:08;;;;;;;4.30;1.85;;;7.10;99.70;;;;;;5023938;28;20475;-70
2022/09/19 02:33:35;;;;;;;10.10;2.03;;;7.10;99.80;;;;;;5018396;28;20521;-70
2022/09/19 02:36:26;;;;;;;8.98;2.60;;;7.10;99.80;;;;;;5029907;28;20044;-70
2022/09/19 02:39:15;;;;;;;3.78;1.90;;;7.10;99.80;;;;;;5020405;28;20025;-70
2022/09/19 02:41:57;;;;;;;4.88;2.05;;;7.10;99.80;;;;;;5023021;28;20030;-71
2022/09/19 02:44:32;;;;;;;8.90;2.25;;;7.10;99.80;;;;;;5025508;28;20030;-69
2022/09/19 02:47:20;;;;;;;3.53;1.98;;;7.10;99.80;;;;;;5028084;28;20087;-71
2022/09/19 02:49:55;;;;;;;4.80;2.55;;;7.10;99.80;;;;;;5028557;28;20504;-70
2022/09/19 02:52:27;;;;;;;5.22;2.30;;;7.20;99.90;;;;;;5026939;28;20057;-69
2022/09/19 02:54:59;;;;;;;6.75;2.38;;;7.10;99.80;;;;;;5028558;28;20029;-70
2022/09/19 02:57:26;;;;;;;8.95;2.72;;;7.20;99.90;;;;;;5021647;28;20045;-70
2022/09/19 02:59:58;;;;;;;6.57;2.78;;;7.10;99.80;;;;;;5026316;28;20536;-69
2022/09/19 03:02:31;;;;;;;7.78;2.47;;;7.20;99.90;;;;;;5024020;28;20490;-70
2022/09/19 03:05:02;;;;;;;5.35;2.33;;;7.20;99.80;;;;;;5028811;28;20036;-70
2022/09/19 03:07:36;;;;;;;5.65;2.35;;;7.10;99.90;;;;;;5031819;28;20033;-70
2022/09/19 03:10:07;;;;;;;7.45;2.15;;;7.10;99.90;;;;;;5027023;28;20030;-70
2022/09/19 03:12:57;;;;;;;8.23;2.78;;;7.10;99.90;;;;;;5022384;28;20036;-70
2022/09/19 03:15:36;;;;;;;6.55;2.50;;;7.10;99.90;;;;;;5024876;28;20061;-69
2022/09/19 03:18:08;;;;;;;9.65;2.47;;;7.10;99.90;;;;;;5031480;28;20473;-69
2022/09/19 03:20:37;;;;;;;8.52;2.65;;;7.00;99.90;;;;;;5030683;28;20487;-69
2022/09/19 03:23:03;;;;;;;4.40;1.92;;;6.90;99.80;;;;;;5034444;28;20052;-70
2022/09/19 03:25:29;;;;;;;7.72;2.50;;;6.90;99.90;;;;;;5026343;28;20036;-71
2022/09/19 03:27:56;;;;;;;7.22;2.53;;;6.90;99.90;;;;;;5026818;28;20029;-70
2022/09/19 03:30:22;;;;;;;9.95;3.65;;;6.90;99.90;;;;;;5026677;28;20064;-70
2022/09/19 03:32:47;;;;;;;9.68;2.63;;;7.00;99.90;;;;;;5034879;28;20061;-71
2022/09/19 03:35:14;;;;;;;6.30;2.55;;;7.00;99.90;;;;;;5029557;28;20415;-70
2022/09/19 03:37:40;;;;;;;6.32;2.47;;;7.00;99.90;;;;;;5015402;28;20382;-70
2022/09/19 03:40:06;;;;;;;8.27;2.60;;;7.00;99.90;;;;;;5027476;28;20036;-70
2022/09/19 03:42:34;;;;;;;10.90;3.20;;;7.00;99.90;;;;;;5031935;28;20039;-70
2022/09/19 03:45:04;;;;;;;7.43;2.33;;;7.00;99.90;;;;;;5034638;28;20026;-70
2022/09/19 03:47:29;;;;;;;10.50;2.10;;;7.00;99.90;;;;;;5026142;28;20042;-70
2022/09/19 03:49:55;;;;;;;5.25;2.10;;;7.00;99.90;;;;;;5028759;28;20030;-69
2022/09/19 03:52:20;;;;;;;7.35;2.17;;;7.10;99.90;;;;;;5030950;28;20043;-70
2022/09/19 03:54:46;;;;;;;6.57;2.17;;;7.00;99.90;;;;;;5032225;28;20099;-70
2022/09/19 03:57:13;;;;;;;4.50;2.03;;;7.00;99.90;;;;;;5024964;28;20103;-69
2022/09/19 03:59:42;;;;;;;6.57;1.92;;;7.00;99.90;;;;;;5030215;28;20041;-70
2022/09/19 04:02:09;;;;;;;5.63;2.60;;;7.00;99.90;;;;;;5034191;28;20034;-70
2022/09/19 04:04:35;;;;;;;4.50;1.95;;;7.00;99.90;;;;;;5031566;28;20040;-69
2022/09/19 04:07:02;;;;;;;6.00;2.08;;;7.00;99.90;;;;;;5017618;28;20393;-70
2022/09/19 04:09:28;;;;;;;9.25;2.22;;;6.90;99.90;;;;;;5032533;28;20592;-70
2022/09/19 04:11:55;;;;;;;6.60;1.77;;;6.90;99.90;;;;;;5022453;28;20042;-69
2022/09/19 04:14:21;;;;;;;6.18;2.08;;;6.90;99.90;;;;;;5033244;28;20025;-70
2022/09/19 04:16:46;;;;;;;5.75;2.10;;;6.80;99.90;;;;;;5028678;28;20091;-70
2022/09/19 04:19:12;;;;;;;10.30;2.20;;;6.90;99.90;;;;;;5034397;28;20037;-69
2022/09/19 04:21:41;;;;;;;5.45;2.08;;;6.80;99.90;;;;;;5021950;28;20061;-70
2022/09/19 04:24:08;;;;;;;7.15;2.00;;;6.80;99.90;;;;;;5031172;28;20076;-70
2022/09/19 04:26:33;;;;;;;8.57;2.03;;;6.70;99.90;;;;;;5030453;28;20120;-70
2022/09/19 04:29:02;;;;;;;4.72;1.73;;;6.70;99.90;;;;;;5028257;28;20041;-69
2022/09/19 04:31:28;;;;;;;11.70;2.00;;;6.70;99.90;;;;;;5032325;28;20138;-69
2022/09/19 04:33:56;;;;;;;8.35;1.90;;;6.70;99.90;;;;;;5021976;28;20037;-69
2022/09/19 04:36:23;;;;;;;6.55;1.88;;;6.60;99.90;;;;;;5025173;28;20022;-69
2022/09/19 04:38:49;;;;;;;5.63;2.10;;;6.50;99.90;;;;;;5038187;28;20044;-69
2022/09/19 04:41:15;;;;;;;9.27;2.15;;;6.50;99.90;;;;;;5022864;28;20381;-69
2022/09/19 04:43:40;;;;;;;4.47;2.13;;;6.40;99.90;;;;;;5033035;28;20370;-69
2022/09/19 04:46:06;;;;;;;10.45;2.17;;;6.40;99.90;;;;;;5020721;28;20486;-69
2022/09/19 04:48:31;;;;;;;7.78;2.08;;;6.30;99.90;;;;;;5032216;28;20037;-68
2022/09/19 04:50:57;;;;;;;5.00;1.63;;;6.30;99.90;;;;;;5031227;28;20110;-69
2022/09/19 04:53:24;;;;;;;7.15;1.83;;;6.20;99.90;;;;;;5024168;28;20450;-69
2022/09/19 04:55:52;;;;;;;7.95;2.30;;;6.10;99.90;;;;;;5022106;28;20104;-69
2022/09/19 04:58:18;;;;;;;8.43;1.98;;;6.10;99.90;;;;;;5030135;28;20484;-68
2022/09/19 05:00:45;;;;;;;6.25;1.80;;;6.10;99.90;;;;;;5026808;28;20036;-69
2022/09/19 05:03:14;;;;;;;8.23;2.40;;;6.10;99.90;;;;;;5036502;28;20389;-69
2022/09/19 05:05:44;;;;;;;8.30;1.98;;;6.10;99.90;;;;;;5028814;28;20033;-69
2022/09/19 05:08:11;;;;;;;6.57;2.10;;;6.20;99.90;;;;;;5030503;28;20103;-69
2022/09/19 05:10:37;;;;;;;8.10;2.45;;;6.20;99.90;;;;;;5017931;28;20033;-69
2022/09/19 05:13:02;;;;;;;5.82;2.15;;;6.30;99.90;;;;;;5026447;28;20033;-69
2022/09/19 05:15:28;;;;;;;9.38;3.00;;;6.50;99.90;;;;;;5027603;28;20132;-69
2022/09/19 05:17:55;;;;;;;5.45;2.40;;;6.50;99.90;;;;;;5030554;28;20044;-69
2022/09/19 05:20:27;;;;;;;6.93;2.22;;;6.60;99.90;;;;;;5022655;28;20026;-69
2022/09/19 05:22:58;;;;;;;7.43;2.40;;;6.70;99.90;;;;;;5026462;28;20045;-69
2022/09/19 05:25:28;;;;;;;8.82;2.60;;;6.80;99.90;;;;;;5021822;28;20409;-69
2022/09/19 05:27:56;;;;;;;10.93;2.92;;;6.80;99.90;;;;;;5028198;28;20808;-69
2022/09/19 05:30:26;;;;;;;14.90;2.90;;;6.90;99.90;;;;;;5027091;28;20057;-69
2022/09/19 05:32:51;;;;;;;10.73;2.80;;;7.00;99.90;;;;;;5044395;28;20115;-68
2022/09/19 05:35:18;;;;;;;12.05;2.72;;;7.00;99.90;;;;;;5025949;28;20029;-69
2022/09/19 05:37:46;;;;;;;10.15;2.85;;;7.00;99.90;;;;;;5030234;28;20044;-70
2022/09/19 05:40:13;;;;;;;10.93;2.40;;;7.00;99.90;;;;;;5024855;28;20030;-69
2022/09/19 05:42:42;;;;;;;10.85;2.55;;;7.10;99.90;;;;;;5026515;28;20076;-69
2022/09/19 05:45:09;;;;;;;6.00;2.47;;;7.20;99.90;;;;;;5014922;28;20434;-69
2022/09/19 05:47:35;;;;;;;10.07;2.90;;;7.30;99.90;;;;;;5012134;28;20466;-68
2022/09/19 05:50:01;;;;;;;15.57;2.70;;;7.30;99.90;;;;;;5026413;28;20032;-69
2022/09/19 05:55:11;;;;;;;9.20;2.47;;;7.40;99.90;;;;;;5022959;28;20369;-68
2022/09/19 05:57:36;;;;;;;11.55;2.45;;;7.40;99.90;;;;;;5026775;28;20037;-68
2022/09/19 06:00:03;;;;;;;7.90;2.35;;;7.40;99.90;;;;;;5022450;28;20026;-69
2022/09/19 06:02:28;;;;;;;8.38;2.10;;;7.40;99.90;;;;;;5034198;28;20092;-69
2022/09/19 06:04:54;;;;;;;5.35;2.22;;;7.50;99.90;;;;;;5023682;28;20085;-69
2022/09/19 06:07:20;;;;;;;12.60;2.83;;;7.50;99.90;;;;;;5031886;28;20065;-69
2022/09/19 06:09:45;;;;;;;9.32;3.00;;;7.50;99.90;;;;;;5030520;28;20437;-69
2022/09/19 06:12:11;;;;;;;11.25;3.00;;;7.50;99.90;;;;;;5029078;28;20076;-69
2022/09/19 06:14:38;;;;;;;11.55;3.05;;;7.50;99.90;;;;;;5042156;28;20029;-69
2022/09/19 06:17:04;;;;;;;7.85;2.85;;;7.50;99.90;;;;;;5031956;28;20476;-70
2022/09/19 06:19:29;;;;;;;8.73;2.17;;;7.50;99.90;;;;;;5034002;28;20100;-70
2022/09/19 06:21:57;;;;;;;12.60;2.88;;;7.60;99.90;;;;;;5031318;28;20084;-69
2022/09/19 06:24:22;;;;;;;12.07;2.72;;;7.60;99.90;;;;;;5028021;28;20464;-70
2022/09/19 06:26:53;;;;;;;8.25;2.85;;;7.60;99.90;;;;;;5011851;28;20112;-69
2022/09/19 06:29:19;;;;;;;13.10;3.28;;;7.70;99.90;;;;;;5026145;28;20481;-70
2022/09/19 06:31:44;;;;;;;12.55;2.78;;;7.70;99.90;;;;;;5023357;28;20038;-70
2022/09/19 06:34:12;;;;;;;9.82;2.95;;;7.80;99.90;;;;;;5029326;28;20091;-70
2022/09/19 06:36:37;;;;;;;14.77;3.47;;;7.80;99.90;;;;;;5023442;28;20470;-70
2022/09/19 06:39:03;;;;;;;10.57;3.30;;;8.00;99.90;;;;;;5031734;28;20100;-69
2022/09/19 06:41:30;;;;;;;14.10;3.55;;;8.10;99.90;;;;;;5024061;28;20414;-70
2022/09/19 06:43:56;;;;;;;15.32;3.45;;;8.40;99.90;;;;;;5031190;28;20029;-70
2022/09/19 06:46:21;;;;;;;12.50;3.15;;;8.60;99.90;;;;;;5023606;28;20465;-70
2022/09/19 06:48:48;;;;;;;11.70;3.63;;;8.70;99.90;;;;;;5031134;28;20041;-70
2022/09/19 06:51:14;;;;;;;11.85;4.28;;;8.80;99.90;;;;;;5025976;28;20029;-70
2022/09/19 06:53:39;;;;;;;18.42;3.40;;;8.90;99.90;;;;;;5022964;28;20048;-70
2022/09/19 06:56:05;;;;;;;13.65;3.47;;;9.00;99.90;;;;;;5018884;28;20044;-71
2022/09/19 06:58:30;;;;;;;16.23;3.55;;;9.00;99.90;;;;;;5018688;28;20033;-70
2022/09/19 07:00:59;;;;;;;13.38;3.40;;;9.10;99.90;;;;;;5023018;28;20456;-71
2022/09/19 07:03:25;;;;;;;14.85;3.08;;;9.20;99.90;;;;;;5023012;28;20095;-70
2022/09/19 07:05:51;;;;;;;21.55;3.97;;;9.30;99.90;;;;;;5028267;28;20041;-70
2022/09/19 07:08:17;;;;;;;18.85;3.33;;;9.40;99.90;;;;;;5033957;28;20056;-70
2022/09/19 07:10:43;;;;;;;12.82;3.25;;;9.60;99.90;;;;;;5029973;28;20061;-70
2022/09/19 07:13:16;;;;;;;13.95;3.78;;;9.70;99.90;;;;;;5023038;28;20037;-70
2022/09/19 07:15:42;;;;;;;11.02;3.40;;;9.80;99.90;;;;;;5025062;28;20063;-70
2022/09/19 07:18:08;;;;;;;14.35;3.47;;;9.90;99.90;;;;;;5026914;28;20406;-70
2022/09/19 07:20:35;;;;;;;14.77;3.47;;;10.00;99.90;;;;;;5026403;28;20068;-71
2022/09/19 07:23:08;;;;;;;11.32;3.10;;;10.10;99.90;;;;;;5026699;28;20041;-71
2022/09/19 07:25:34;;;;;;;18.35;2.83;;;10.10;99.90;;;;;;5024438;28;20044;-70
2022/09/19 07:28:02;;;;;;;16.75;3.40;;;10.30;99.90;;;;;;5024012;28;20025;-71
2022/09/19 07:30:28;;;;;;;14.88;3.55;;;10.40;99.90;;;;;;5024523;28;20425;-71
2022/09/19 07:32:59;;;;;;;15.52;3.45;;;10.50;99.90;;;;;;5025565;28;20030;-70
2022/09/19 07:35:27;;;;;;;20.45;3.40;;;10.80;99.90;;;;;;5022896;28;20128;-70
2022/09/19 07:37:53;;;;;;;18.20;3.78;;;11.00;99.90;;;;;;5020508;28;20026;-70
2022/09/19 07:40:18;;;;;;;13.77;2.78;;;11.10;99.90;;;;;;5025937;28;20025;-70
2022/09/19 07:42:44;;;;;;;19.52;3.28;;;11.30;99.90;;;;;;5031808;28;20038;-71
2022/09/19 07:45:10;;;;;;;23.52;3.92;;;11.60;99.90;;;;;;5025680;28;20026;-71
2022/09/19 07:47:44;;;;;;;19.92;2.85;;;11.80;99.90;;;;;;5028662;28;20053;-70
2022/09/19 07:50:16;;;;;;;25.55;4.20;;;11.90;99.90;;;;;;5046462;28;20049;-70
2022/09/19 07:52:46;;;;;;;21.05;2.67;;;12.00;99.90;;;;;;5034365;28;20029;-70
2022/09/19 07:55:14;;;;;;;18.27;2.33;;;12.10;99.90;;;;;;5031319;28;20029;-70
2022/09/19 07:57:55;;;;;;;22.40;3.15;;;12.20;99.90;;;;;;5027888;28;20528;-70
2022/09/19 08:00:20;;;;;;;25.97;3.50;;;12.20;99.80;;;;;;5023783;28;20385;-71
2022/09/19 08:03:13;;;;;;;19.38;3.00;;;12.10;99.60;;;;;;5023138;28;20045;-71
2022/09/19 08:05:41;;;;;;;27.83;3.63;;;12.10;99.50;;;;;;5023253;28;20045;-72
2022/09/19 08:08:10;;;;;;;18.70;3.15;;;12.10;99.40;;;;;;5023005;28;20643;-71
2022/09/19 08:10:36;;;;;;;17.33;2.33;;;12.20;99.30;;;;;;5028802;28;20528;-71
2022/09/19 08:13:04;;;;;;;15.43;2.55;;;12.50;99.20;;;;;;5026632;28;20029;-71
2022/09/19 08:15:30;;;;;;;14.90;2.13;;;12.70;98.80;;;;;;5027758;28;20045;-71
2022/09/19 08:18:01;;;;;;;13.73;2.25;;;12.80;98.10;;;;;;5031885;28;20044;-71
2022/09/19 08:20:29;;;;;;;16.40;2.65;;;12.90;97.80;;;;;;5026152;28;20104;-71
2022/09/19 08:22:56;;;;;;;19.10;2.30;;;12.80;97.60;;;;;;5030940;28;20045;-71
2022/09/19 08:25:23;;;;;;;11.50;1.85;;;13.00;97.20;;;;;;5020737;28;20033;-72
2022/09/19 08:27:50;;;;;;;18.38;2.70;;;13.30;96.70;;;;;;5023672;28;20069;-72
2022/09/19 08:30:16;;;;;;;11.23;1.90;;;13.30;96.10;;;;;;5019412;28;20564;-70
2022/09/19 08:32:49;;;;;;;19.88;2.53;;;13.20;95.90;;;;;;5027998;28;20037;-71
2022/09/19 08:35:15;;;;;;;16.08;2.35;;;13.40;95.80;;;;;;5028414;28;20469;-70
2022/09/19 08:37:41;;;;;;;14.02;2.70;;;13.60;95.30;;;;;;5026777;28;20030;-71
2022/09/19 08:40:18;;;;;;;16.65;2.67;;;13.60;95.20;;;;;;5028902;28;20021;-72
2022/09/19 08:42:56;;;;;;;15.93;2.40;;;13.50;95.10;;;;;;5023572;28;20060;-71
2022/09/19 08:45:40;;;;;;;12.50;1.85;;;13.60;95.00;;;;;;5022894;28;20477;-70
2022/09/19 08:48:13;;;;;;;18.23;2.80;;;13.70;95.10;;;;;;5017811;28;20068;-71
2022/09/19 08:50:42;;;;;;;16.05;2.72;;;13.70;94.60;;;;;;5024118;28;20036;-70
2022/09/19 08:53:15;;;;;;;12.82;2.05;;;13.70;94.70;;;;;;5025323;28;20044;-71
2022/09/19 08:55:41;;;;;;;14.68;2.10;;;14.00;94.80;;;;;;5025351;28;20034;-71
2022/09/19 08:58:21;;;;;;;15.00;1.98;;;14.10;94.00;;;;;;5024017;28;20226;-70
2022/09/19 09:00:48;;;;;;;15.63;2.35;;;14.20;93.60;;;;;;5017473;28;20076;-72
2022/09/19 09:03:39;;;;;;;13.30;2.70;;;14.30;93.50;;;;;;5018660;28;20049;-71
2022/09/19 09:06:22;;;;;;;17.10;2.10;;;14.40;93.20;;;;;;5026641;28;20386;-72
2022/09/19 09:08:57;;;;;;;16.55;1.90;;;14.30;92.50;;;;;;5020598;28;20663;-71
2022/09/19 09:11:36;;;;;;;12.90;2.42;;;14.40;91.80;;;;;;5024511;28;20072;-70
2022/09/19 09:14:40;;;;;;;15.60;1.60;;;14.40;91.40;;;;;;5026144;28;20029;-71
2022/09/19 09:17:43;;;;;;;13.88;2.85;;;14.50;91.70;;;;;;5026020;28;20026;-71
2022/09/19 09:20:48;;;;;;;16.92;2.70;;;14.50;91.90;;;;;;4990780;28;20214;-71
2022/09/19 09:23:38;;;;;;;15.05;2.22;;;14.60;91.70;;;;;;5015590;28;20725;-71
2022/09/19 09:26:14;;;;;;;11.93;1.98;;;14.70;91.50;;;;;;5025208;28;20057;-71
2022/09/19 09:28:55;;;;;;;16.77;1.95;;;14.80;90.80;;;;;;5021655;28;20036;-71
2022/09/19 09:31:36;;;;;;;20.00;2.28;;;15.00;89.60;;;;;;5018162;28;20040;-70
2022/09/19 09:34:07;;;;;;;21.70;2.83;;;15.70;88.60;;;;;;5022427;28;20065;-70
2022/09/19 09:37:12;;;;;;;14.05;1.83;;;16.00;87.20;;;;;;5024520;28;20025;-71
2022/09/19 09:39:58;;;;;;;12.02;2.20;;;16.10;86.80;;;;;;5024656;28;20569;-70
2022/09/19 09:42:34;;;;;;;16.05;2.45;;;15.70;85.30;;;;;;5026604;28;20041;-70
2022/09/19 09:45:29;;;;;;;16.15;2.20;;;15.50;86.50;;;;;;5025020;28;20030;-70
2022/09/19 09:48:20;;;;;;;14.63;2.75;;;15.90;86.40;;;;;;5017920;28;20025;-71
2022/09/19 09:51:08;;;;;;;13.00;2.40;;;16.30;85.50;;;;;;5020611;28;20063;-71
2022/09/19 09:53:59;;;;;;;11.05;2.22;;;16.80;83.10;;;;;;5021282;28;20390;-70
2022/09/19 09:56:47;;;;;;;11.60;2.05;;;16.30;82.90;;;;;;5020083;28;20477;-71
2022/09/19 10:05:54;;;;;;;9.82;1.55;;;15.00;87.40;;;;;;5039434;28;20106;-71
2022/09/19 10:08:27;;;;;;;6.45;1.25;;;13.60;88.10;;;;;;5035677;28;20048;-71
2022/09/19 10:11:04;;;;;;;7.38;1.17;;;12.80;91.40;;;;;;5030298;28;20040;-71
2022/09/19 10:13:38;;;;;;;8.52;1.10;;;12.10;90.60;;;;;;5026279;28;20028;-72
2022/09/19 10:16:05;;;;;;;4.57;1.00;;;11.70;90.50;;;;;;5027274;28;20025;-72
2022/09/19 10:18:43;;;;;;;8.88;0.93;;;11.60;92.60;;;;;;5027956;28;20287;-71
2022/09/19 10:21:08;;;;;;;6.55;1.20;;;11.50;93.00;;;;;;5015572;28;20042;-72
2022/09/19 10:23:34;;;;;;;5.28;1.00;;;11.50;91.70;;;;;;5020144;28;20432;-71
2022/09/19 10:26:06;;;;;;;7.18;1.00;;;11.60;92.70;;;;;;5041345;28;20029;-71
2022/09/19 10:28:43;;;;;;;4.38;1.00;;;11.70;93.40;;;;;;5028922;28;20037;-71
2022/09/19 10:31:23;;;;;;;8.93;0.95;;;11.70;93.30;;;;;;5029664;28;20033;-71
2022/09/19 10:33:50;;;;;;;5.32;1.25;;;11.90;93.80;;;;;;5027459;28;20075;-72
2022/09/19 10:36:26;;;;;;;7.75;1.42;;;11.90;94.30;;;;;;5036241;28;20033;-71
2022/09/19 10:38:58;;;;;;;6.28;1.30;;;12.00;94.70;;;;;;5035142;28;20036;-71
2022/09/19 10:41:26;;;;;;;7.80;1.30;;;11.90;94.70;;;;;;5034547;28;20029;-71
2022/09/19 10:43:54;;;;;;;14.50;1.70;;;11.80;94.80;;;;;;5027771;28;20044;-70
2022/09/19 10:46:23;;;;;;;9.60;1.45;;;11.80;94.90;;;;;;5035642;28;20117;-71
2022/09/19 10:48:53;;;;;;;5.72;1.10;;;11.90;95.30;;;;;;5034742;28;20416;-72
2022/09/19 10:51:19;;;;;;;16.83;1.95;;;11.90;95.70;;;;;;5030115;28;20114;-71
2022/09/19 10:53:52;;;;;;;12.65;1.70;;;11.90;96.00;;;;;;5030934;28;20033;-71
2022/09/19 10:56:27;;;;;;;15.18;2.10;;;11.90;96.10;;;;;;5029247;28;20116;-71
2022/09/19 10:59:11;;;;;;;9.50;1.05;;;11.80;96.10;;;;;;5030477;28;20044;-72
2022/09/19 11:01:38;;;;;;;9.73;1.33;;;11.70;95.40;;;;;;5036259;28;20079;-72
2022/09/19 11:04:25;;;;;;;4.93;0.90;;;11.70;95.10;;;;;;5024223;28;20425;-71
2022/09/19 11:07:02;;;;;;;8.52;1.00;;;11.70;95.10;;;;;;5029291;28;20047;-71
2022/09/19 11:09:34;;;;;;;4.70;0.85;;;11.60;94.60;;;;;;5034285;28;20112;-72
2022/09/19 11:12:13;;;;;;;4.80;1.00;;;11.60;94.10;;;;;;5028605;28;20028;-72
2022/09/19 11:14:40;;;;;;;5.32;1.10;;;11.80;94.10;;;;;;5030224;28;20539;-71
2022/09/19 11:17:25;;;;;;;6.35;1.10;;;12.00;94.10;;;;;;5035150;28;20064;-71
2022/09/19 11:20:16;;;;;;;2.50;0.85;;;12.50;94.00;;;;;;5036129;28;20061;-72
2022/09/19 11:23:03;;;;;;;2.45;0.45;;;12.70;93.10;;;;;;5039689;28;20092;-72
2022/09/19 11:25:46;;;;;;;2.92;0.40;;;13.20;92.90;;;;;;5034967;28;20025;-72
2022/09/19 11:28:32;;;;;;;3.58;0.55;;;13.50;91.70;;;;;;5026883;28;20029;-72
2022/09/19 11:31:09;;;;;;;5.55;0.90;;;14.00;90.80;;;;;;5031135;28;20030;-72
2022/09/19 11:33:47;;;;;;;6.82;1.15;;;14.30;90.30;;;;;;5033772;28;20034;-72
2022/09/19 11:36:31;;;;;;;2.78;0.82;;;14.60;90.20;;;;;;5017782;28;20363;-72
2022/09/19 11:39:10;;;;;;;5.63;1.13;;;14.90;88.20;;;;;;5031893;28;20111;-72
2022/09/19 11:42:03;;;;;;;7.10;0.85;;;15.00;88.60;;;;;;5032167;28;20030;-72
2022/09/19 11:44:55;;;;;;;4.35;0.90;;;14.80;87.90;;;;;;5025829;28;20104;-71
2022/09/19 11:47:50;;;;;;;5.40;0.90;;;14.70;89.10;;;;;;5029552;28;20034;-72
2022/09/19 11:50:44;;;;;;;10.85;1.55;;;14.50;89.70;;;;;;5032545;28;20489;-72
2022/09/19 11:53:29;;;;;;;5.97;1.13;;;14.30;90.50;;;;;;5028372;28;20029;-72
2022/09/19 11:55:59;;;;;;;4.43;0.93;;;14.00;90.10;;;;;;5024443;28;20436;-71
2022/09/19 11:58:54;;;;;;;3.63;1.13;;;13.90;91.40;;;;;;5027813;28;20079;-71
2022/09/19 12:02:20;;;;;;;5.55;1.10;;;13.60;92.40;;;;;;5031244;28;20396;-71
2022/09/19 12:04:58;;;;;;;6.65;1.60;;;13.40;93.00;;;;;;5000279;28;20560;-71
2022/09/19 12:07:44;;;;;;;9.38;1.67;;;13.10;94.00;;;;;;5010761;28;20031;-71
2022/09/19 12:10:20;;;;;;;7.28;1.42;;;12.60;94.60;;;;;;5014823;28;20050;-72
2022/09/19 12:12:58;;;;;;;7.13;1.15;;;12.10;96.30;;;;;;5027612;28;20029;-73
2022/09/19 12:15:32;;;;;;;8.90;1.50;;;11.80;96.70;;;;;;5020316;28;20083;-72
2022/09/19 12:18:01;;;;;;;10.32;1.33;;;11.70;96.80;;;;;;5032227;28;20071;-72
2022/09/19 12:20:38;;;;;;;5.60;1.10;;;11.80;97.30;;;;;;5034727;28;20030;-72
2022/09/19 12:26:16;;;;;;;6.63;0.93;;;12.10;96.20;;;;;;5024254;28;20032;-72
2022/09/19 12:28:52;;;;;;;10.30;1.40;;;12.10;95.90;;;;;;5033625;28;20025;-72
2022/09/19 12:31:24;;;;;;;6.22;1.08;;;12.10;96.10;;;;;;5033110;28;20033;-72
2022/09/19 12:34:00;;;;;;;7.50;1.20;;;12.20;96.10;;;;;;5033633;28;20029;-72
2022/09/19 12:36:34;;;;;;;7.07;1.23;;;12.20;96.30;;;;;;5031748;28;20462;-71
2022/09/19 12:39:16;;;;;;;9.73;1.13;;;12.30;96.30;;;;;;5030109;28;20068;-72
2022/09/19 12:41:57;;;;;;;7.63;1.70;;;12.30;96.70;;;;;;5032219;28;20028;-72
2022/09/19 12:44:52;;;;;;;8.20;1.73;;;12.30;96.60;;;;;;5029115;28;20072;-72
2022/09/19 12:47:36;;;;;;;9.93;1.42;;;12.40;96.70;;;;;;5024057;28;20373;-72
2022/09/19 12:50:18;;;;;;;6.88;1.40;;;12.40;96.50;;;;;;5028559;28;20025;-72
2022/09/19 12:53:09;;;;;;;10.70;1.50;;;12.50;96.90;;;;;;5029462;28;20037;-73
2022/09/19 12:55:57;;;;;;;8.40;1.50;;;12.80;97.00;;;;;;5019911;28;20037;-73
2022/09/19 12:58:27;;;;;;;10.38;1.23;;;13.70;97.30;;;;;;5024748;28;20386;-73
2022/09/19 13:01:12;;;;;;;6.03;1.10;;;14.40;96.30;;;;;;5025879;28;20036;-73
2022/09/19 13:03:44;;;;;;;7.45;1.33;;;14.20;94.60;;;;;;5025708;28;20133;-73
2022/09/19 13:06:21;;;;;;;6.38;1.02;;;14.20;94.20;;;;;;5022221;28;20040;-70
2022/09/19 13:09:13;;;;;;;9.30;1.10;;;15.00;94.30;;;;;;5021399;28;20022;-71
2022/09/19 13:11:59;;;;;;;7.38;1.48;;;15.00;92.40;;;;;;5016559;28;20048;-73
2022/09/19 13:14:58;;;;;;;6.32;1.20;;;15.30;92.40;;;;;;5025035;28;20033;-74
2022/09/19 13:23:30;;;;;;;8.32;1.40;;;14.20;91.90;;;;;;5025159;28;20094;-73
2022/09/19 13:25:57;;;;;;;6.28;0.82;;;13.90;92.50;;;;;;5024825;28;20025;-72
2022/09/19 13:28:26;;;;;;;6.85;1.20;;;13.60;92.80;;;;;;5019580;28;20039;-72
2022/09/19 13:31:04;;;;;;;6.85;1.58;;;13.40;93.40;;;;;;5024690;28;20100;-72
2022/09/19 13:33:45;;;;;;;6.07;1.50;;;13.30;93.80;;;;;;5029406;28;20068;-72
2022/09/19 13:36:15;;;;;;;9.95;1.60;;;13.10;94.40;;;;;;5027153;28;20034;-71
2022/09/19 13:38:50;;;;;;;5.65;1.45;;;13.00;94.90;;;;;;5025731;28;20042;-72
2022/09/19 13:41:28;;;;;;;8.82;1.48;;;13.00;95.30;;;;;;5030088;28;20055;-70